sensor_id;sensor_type;location;lat;lon;timestamp;pressure;altitude;pressure_sealevel;temperature;humidity
17615;BME280;8926;49.720;6.576;2022-07-10T00:01:13;100582.69;;;19.12;54.80
17615;BME280;8926;49.720;6.576;2022-07-10T00:03:38;100582.94;;;19.09;54.97
17615;BME280;8926;49.720;6.576;2022-07-10T00:06:03;100582.91;;;18.97;55.51
17615;BME280;8926;49.720;6.576;2022-07-10T00:08:29;100583.19;;;18.94;56.51
17615;BME280;8926;49.720;6.576;2022-07-10T00:10:54;100583.91;;;18.96;55.48
17615;BME280;8926;49.720;6.576;2022-07-10T00:13:19;100587.53;;;18.95;55.99
17615;BME280;8926;49.720;6.576;2022-07-10T00:15:45;100591.13;;;18.94;55.89
17615;BME280;8926;49.720;6.576;2022-07-10T00:18:10;100594.75;;;18.93;55.95
17615;BME280;8926;49.720;6.576;2022-07-10T00:20:35;100595.22;;;18.87;56.26
17615;BME280;8926;49.720;6.576;2022-07-10T00:23:01;100589.53;;;18.81;56.14
17615;BME280;8926;49.720;6.576;2022-07-10T00:25:26;100597.94;;;18.75;56.53
17615;BME280;8926;49.720;6.576;2022-07-10T00:27:52;100596.38;;;18.72;56.68
17615;BME280;8926;49.720;6.576;2022-07-10T00:30:17;100601.94;;;18.69;56.76
17615;BME280;8926;49.720;6.576;2022-07-10T00:32:42;100600.72;;;18.62;57.07
17615;BME280;8926;49.720;6.576;2022-07-10T00:35:08;100606.19;;;18.59;57.05
17615;BME280;8926;49.720;6.576;2022-07-10T00:37:34;100603.28;;;18.51;57.22
17615;BME280;8926;49.720;6.576;2022-07-10T00:39:59;100607.72;;;18.50;56.30
17615;BME280;8926;49.720;6.576;2022-07-10T00:42:25;100598.94;;;18.39;57.47
17615;BME280;8926;49.720;6.576;2022-07-10T00:44:50;100612.13;;;18.27;57.49
17615;BME280;8926;49.720;6.576;2022-07-10T00:47:16;100610.53;;;18.25;57.54
17615;BME280;8926;49.720;6.576;2022-07-10T00:49:45;100608.75;;;18.25;57.86
17615;BME280;8926;49.720;6.576;2022-07-10T00:52:12;100605.59;;;18.20;58.37
17615;BME280;8926;49.720;6.576;2022-07-10T00:54:40;100613.03;;;18.15;58.89
17615;BME280;8926;49.720;6.576;2022-07-10T00:57:06;100611.81;;;18.08;58.58
17615;BME280;8926;49.720;6.576;2022-07-10T00:59:32;100606.00;;;18.03;58.76
17615;BME280;8926;49.720;6.576;2022-07-10T01:01:58;100612.25;;;18.02;59.07
17615;BME280;8926;49.720;6.576;2022-07-10T01:04:24;100606.97;;;18.02;59.42
17615;BME280;8926;49.720;6.576;2022-07-10T01:06:50;100612.25;;;18.02;58.90
17615;BME280;8926;49.720;6.576;2022-07-10T01:09:16;100610.78;;;17.98;59.50
17615;BME280;8926;49.720;6.576;2022-07-10T01:11:41;100608.88;;;18.00;59.31
17615;BME280;8926;49.720;6.576;2022-07-10T01:14:07;100605.16;;;18.03;58.45
17615;BME280;8926;49.720;6.576;2022-07-10T01:16:33;100600.22;;;17.98;59.82
17615;BME280;8926;49.720;6.576;2022-07-10T01:18:59;100601.66;;;17.91;59.04
17615;BME280;8926;49.720;6.576;2022-07-10T01:21:28;100602.34;;;17.93;58.54
17615;BME280;8926;49.720;6.576;2022-07-10T01:23:54;100598.75;;;17.94;58.64
17615;BME280;8926;49.720;6.576;2022-07-10T01:26:20;100602.81;;;17.87;58.93
17615;BME280;8926;49.720;6.576;2022-07-10T01:28:52;100599.44;;;17.85;59.21
17615;BME280;8926;49.720;6.576;2022-07-10T01:31:27;100602.31;;;17.82;58.46
17615;BME280;8926;49.720;6.576;2022-07-10T01:33:53;100587.41;;;17.81;58.43
17615;BME280;8926;49.720;6.576;2022-07-10T01:36:20;100589.53;;;17.76;58.60
17615;BME280;8926;49.720;6.576;2022-07-10T01:38:45;100589.97;;;17.70;58.22
17615;BME280;8926;49.720;6.576;2022-07-10T01:41:11;100596.66;;;17.62;58.64
17615;BME280;8926;49.720;6.576;2022-07-10T01:43:36;100590.31;;;17.52;58.88
17615;BME280;8926;49.720;6.576;2022-07-10T01:46:05;100602.06;;;17.48;58.87
17615;BME280;8926;49.720;6.576;2022-07-10T01:48:30;100598.69;;;17.46;58.49
17615;BME280;8926;49.720;6.576;2022-07-10T01:50:56;100608.19;;;17.49;58.55
17615;BME280;8926;49.720;6.576;2022-07-10T01:53:22;100604.72;;;17.48;58.29
17615;BME280;8926;49.720;6.576;2022-07-10T01:55:47;100614.53;;;17.46;58.15
17615;BME280;8926;49.720;6.576;2022-07-10T01:58:13;100617.91;;;17.48;58.54
17615;BME280;8926;49.720;6.576;2022-07-10T02:00:38;100623.19;;;17.48;57.69
17615;BME280;8926;49.720;6.576;2022-07-10T02:03:04;100614.53;;;17.46;57.69
17615;BME280;8926;49.720;6.576;2022-07-10T02:05:48;100618.34;;;17.42;57.83
17615;BME280;8926;49.720;6.576;2022-07-10T02:08:13;100618.34;;;17.42;57.55
17615;BME280;8926;49.720;6.576;2022-07-10T02:10:38;100618.81;;;17.36;57.44
17615;BME280;8926;49.720;6.576;2022-07-10T02:13:04;100632.22;;;17.33;57.50
17615;BME280;8926;49.720;6.576;2022-07-10T02:15:29;100630.84;;;17.27;57.32
17615;BME280;8926;49.720;6.576;2022-07-10T02:17:54;100630.03;;;17.14;57.28
17615;BME280;8926;49.720;6.576;2022-07-10T02:20:19;100629.41;;;17.11;57.77
17615;BME280;8926;49.720;6.576;2022-07-10T02:22:45;100625.81;;;17.12;58.07
17615;BME280;8926;49.720;6.576;2022-07-10T02:25:10;100627.72;;;17.10;57.99
17615;BME280;8926;49.720;6.576;2022-07-10T02:27:35;100616.53;;;17.06;58.05
17615;BME280;8926;49.720;6.576;2022-07-10T02:30:00;100619.25;;;17.05;58.38
17615;BME280;8926;49.720;6.576;2022-07-10T02:32:26;100623.69;;;17.04;58.42
17615;BME280;8926;49.720;6.576;2022-07-10T02:34:51;100626.22;;;17.06;58.01
17615;BME280;8926;49.720;6.576;2022-07-10T02:37:17;100626.22;;;17.06;58.55
17615;BME280;8926;49.720;6.576;2022-07-10T02:39:42;100623.59;;;17.06;58.31
17615;BME280;8926;49.720;6.576;2022-07-10T02:42:07;100626.22;;;17.06;58.24
17615;BME280;8926;49.720;6.576;2022-07-10T02:44:32;100626.34;;;17.04;58.27
17615;BME280;8926;49.720;6.576;2022-07-10T02:46:58;100619.69;;;16.99;58.83
17615;BME280;8926;49.720;6.576;2022-07-10T02:49:23;100630.66;;;16.92;58.35
17615;BME280;8926;49.720;6.576;2022-07-10T02:51:49;100625.72;;;16.88;58.59
17615;BME280;8926;49.720;6.576;2022-07-10T02:54:15;100626.44;;;16.77;58.92
17615;BME280;8926;49.720;6.576;2022-07-10T02:56:41;100629.19;;;16.76;58.78
17615;BME280;8926;49.720;6.576;2022-07-10T02:59:06;100621.56;;;16.71;58.68
17615;BME280;8926;49.720;6.576;2022-07-10T03:01:31;100611.13;;;16.70;58.72
17615;BME280;8926;49.720;6.576;2022-07-10T03:03:57;100611.22;;;16.68;58.40
17615;BME280;8926;49.720;6.576;2022-07-10T03:06:23;100611.75;;;16.60;59.26
17615;BME280;8926;49.720;6.576;2022-07-10T03:08:48;100614.03;;;16.52;59.48
17615;BME280;8926;49.720;6.576;2022-07-10T03:11:14;100608.22;;;16.47;59.32
17615;BME280;8926;49.720;6.576;2022-07-10T03:13:39;100619.81;;;16.45;59.64
17615;BME280;8926;49.720;6.576;2022-07-10T03:16:05;100622.66;;;16.42;58.98
17615;BME280;8926;49.720;6.576;2022-07-10T03:18:30;100625.72;;;16.36;59.98
17615;BME280;8926;49.720;6.576;2022-07-10T03:20:55;100623.31;;;16.33;59.82
17615;BME280;8926;49.720;6.576;2022-07-10T03:23:21;100627.63;;;16.34;60.01
17615;BME280;8926;49.720;6.576;2022-07-10T03:25:46;100618.31;;;16.28;59.82
17615;BME280;8926;49.720;6.576;2022-07-10T03:28:11;100627.69;;;16.19;60.13
17615;BME280;8926;49.720;6.576;2022-07-10T03:30:37;100626.00;;;16.18;59.67
17615;BME280;8926;49.720;6.576;2022-07-10T03:33:02;100617.22;;;16.18;60.03
17615;BME280;8926;49.720;6.576;2022-07-10T03:35:29;100622.69;;;16.15;60.31
17615;BME280;8926;49.720;6.576;2022-07-10T03:37:56;100618.69;;;16.09;60.54
17615;BME280;8926;49.720;6.576;2022-07-10T03:40:21;100622.47;;;16.05;60.00
17615;BME280;8926;49.720;6.576;2022-07-10T03:42:46;100627.19;;;16.00;60.08
17615;BME280;8926;49.720;6.576;2022-07-10T03:45:12;100615.47;;;15.91;60.39
17615;BME280;8926;49.720;6.576;2022-07-10T03:47:37;100621.78;;;15.89;60.45
17615;BME280;8926;49.720;6.576;2022-07-10T03:50:03;100614.63;;;15.91;60.30
17615;BME280;8926;49.720;6.576;2022-07-10T03:52:28;100624.56;;;16.00;60.53
17615;BME280;8926;49.720;6.576;2022-07-10T03:54:54;100629.63;;;16.03;59.93
17615;BME280;8926;49.720;6.576;2022-07-10T03:57:19;100627.19;;;16.00;60.27
17615;BME280;8926;49.720;6.576;2022-07-10T04:00:04;100623.63;;;16.01;59.66
17615;BME280;8926;49.720;6.576;2022-07-10T04:02:29;100623.25;;;15.93;60.17
17615;BME280;8926;49.720;6.576;2022-07-10T04:04:54;100625.81;;;15.94;60.37
17615;BME280;8926;49.720;6.576;2022-07-10T04:07:20;100625.13;;;16.05;59.13
17615;BME280;8926;49.720;6.576;2022-07-10T04:09:45;100631.56;;;16.14;59.94
17615;BME280;8926;49.720;6.576;2022-07-10T04:12:11;100626.34;;;16.26;59.76
17615;BME280;8926;49.720;6.576;2022-07-10T04:14:36;100633.66;;;16.36;59.66
17615;BME280;8926;49.720;6.576;2022-07-10T04:17:01;100628.94;;;16.53;58.83
17615;BME280;8926;49.720;6.576;2022-07-10T04:19:27;100625.56;;;16.64;58.00
17615;BME280;8926;49.720;6.576;2022-07-10T04:21:52;100623.84;;;16.63;58.45
17615;BME280;8926;49.720;6.576;2022-07-10T04:24:18;100623.69;;;16.66;59.06
17615;BME280;8926;49.720;6.576;2022-07-10T04:26:44;100619.47;;;16.76;58.49
17615;BME280;8926;49.720;6.576;2022-07-10T04:29:09;100624.53;;;16.92;57.83
17615;BME280;8926;49.720;6.576;2022-07-10T04:31:34;100626.03;;;17.09;57.76
17615;BME280;8926;49.720;6.576;2022-07-10T04:34:00;100623.47;;;17.20;56.92
17615;BME280;8926;49.720;6.576;2022-07-10T04:36:25;100630.97;;;17.26;57.41
17615;BME280;8926;49.720;6.576;2022-07-10T04:38:50;100628.09;;;17.29;56.98
17615;BME280;8926;49.720;6.576;2022-07-10T04:41:15;100627.22;;;17.41;57.10
17615;BME280;8926;49.720;6.576;2022-07-10T04:43:41;100623.84;;;17.65;56.88
17615;BME280;8926;49.720;6.576;2022-07-10T04:46:06;100621.22;;;17.88;56.19
17615;BME280;8926;49.720;6.576;2022-07-10T04:48:32;100632.66;;;18.00;55.82
17615;BME280;8926;49.720;6.576;2022-07-10T04:50:57;100632.53;;;18.14;55.16
17615;BME280;8926;49.720;6.576;2022-07-10T04:53:23;100633.06;;;18.30;54.83
17615;BME280;8926;49.720;6.576;2022-07-10T04:55:48;100638.88;;;18.47;54.31
17615;BME280;8926;49.720;6.576;2022-07-10T04:58:13;100636.06;;;18.61;54.27
17615;BME280;8926;49.720;6.576;2022-07-10T05:00:39;100634.91;;;18.76;53.38
17615;BME280;8926;49.720;6.576;2022-07-10T05:03:04;100637.34;;;18.90;53.44
17615;BME280;8926;49.720;6.576;2022-07-10T05:05:29;100638.56;;;19.09;52.80
17615;BME280;8926;49.720;6.576;2022-07-10T05:07:55;100626.53;;;19.16;52.26
17615;BME280;8926;49.720;6.576;2022-07-10T05:10:20;100643.59;;;19.23;52.63
17615;BME280;8926;49.720;6.576;2022-07-10T05:12:45;100640.00;;;19.35;51.75
17615;BME280;8926;49.720;6.576;2022-07-10T05:15:11;100634.44;;;19.49;51.62
17615;BME280;8926;49.720;6.576;2022-07-10T05:17:36;100631.56;;;19.63;51.24
17615;BME280;8926;49.720;6.576;2022-07-10T05:20:01;100640.50;;;19.74;50.72
17615;BME280;8926;49.720;6.576;2022-07-10T05:22:27;100643.81;;;19.87;50.55
17615;BME280;8926;49.720;6.576;2022-07-10T05:24:55;100636.75;;;20.08;50.22
17615;BME280;8926;49.720;6.576;2022-07-10T05:27:23;100637.19;;;20.24;50.15
17615;BME280;8926;49.720;6.576;2022-07-10T05:29:49;100637.88;;;20.38;48.97
17615;BME280;8926;49.720;6.576;2022-07-10T05:32:14;100638.00;;;20.57;48.24
17615;BME280;8926;49.720;6.576;2022-07-10T05:34:40;100635.38;;;20.78;48.15
17615;BME280;8926;49.720;6.576;2022-07-10T05:37:05;100640.09;;;20.74;48.15
17615;BME280;8926;49.720;6.576;2022-07-10T05:39:32;100638.78;;;20.89;47.55
17615;BME280;8926;49.720;6.576;2022-07-10T05:41:57;100633.56;;;21.09;47.42
17615;BME280;8926;49.720;6.576;2022-07-10T05:44:23;100639.44;;;21.33;47.14
17615;BME280;8926;49.720;6.576;2022-07-10T05:46:49;100634.91;;;21.54;46.33
17615;BME280;8926;49.720;6.576;2022-07-10T05:49:14;100636.91;;;21.72;46.22
17615;BME280;8926;49.720;6.576;2022-07-10T05:51:39;100631.72;;;21.70;46.04
17615;BME280;8926;49.720;6.576;2022-07-10T05:54:04;100625.16;;;21.74;45.87
17615;BME280;8926;49.720;6.576;2022-07-10T05:56:30;100633.03;;;21.95;46.07
17615;BME280;8926;49.720;6.576;2022-07-10T05:58:56;100638.66;;;22.02;45.34
17615;BME280;8926;49.720;6.576;2022-07-10T06:01:22;100640.94;;;22.06;45.01
17615;BME280;8926;49.720;6.576;2022-07-10T06:03:47;100630.28;;;22.06;44.13
17615;BME280;8926;49.720;6.576;2022-07-10T06:06:13;100635.88;;;22.22;45.02
17615;BME280;8926;49.720;6.576;2022-07-10T06:08:44;100631.25;;;22.24;44.28
17615;BME280;8926;49.720;6.576;2022-07-10T06:11:10;100638.69;;;22.30;44.10
17615;BME280;8926;49.720;6.576;2022-07-10T06:13:36;100642.16;;;22.41;44.07
17615;BME280;8926;49.720;6.576;2022-07-10T06:16:02;100640.34;;;22.51;43.39
17615;BME280;8926;49.720;6.576;2022-07-10T06:18:29;100638.63;;;22.69;43.86
17615;BME280;8926;49.720;6.576;2022-07-10T06:20:54;100637.50;;;22.91;43.14
17615;BME280;8926;49.720;6.576;2022-07-10T06:23:19;100637.47;;;23.00;42.05
17615;BME280;8926;49.720;6.576;2022-07-10T06:25:44;100644.41;;;23.21;42.34
17615;BME280;8926;49.720;6.576;2022-07-10T06:28:10;100640.19;;;23.28;42.21
17615;BME280;8926;49.720;6.576;2022-07-10T06:30:35;100635.13;;;23.34;41.93
17615;BME280;8926;49.720;6.576;2022-07-10T06:33:00;100633.47;;;23.51;41.89
17615;BME280;8926;49.720;6.576;2022-07-10T06:35:26;100628.06;;;23.71;40.52
17615;BME280;8926;49.720;6.576;2022-07-10T06:37:51;100621.13;;;23.78;40.43
17615;BME280;8926;49.720;6.576;2022-07-10T06:40:17;100623.16;;;23.66;40.96
17615;BME280;8926;49.720;6.576;2022-07-10T06:42:45;100620.97;;;23.61;41.11
17615;BME280;8926;49.720;6.576;2022-07-10T06:45:10;100627.66;;;23.65;40.33
17615;BME280;8926;49.720;6.576;2022-07-10T06:47:36;100620.53;;;23.84;40.66
17615;BME280;8926;49.720;6.576;2022-07-10T06:50:20;100622.25;;;23.57;40.53
17615;BME280;8926;49.720;6.576;2022-07-10T06:52:46;100633.75;;;23.58;40.21
17615;BME280;8926;49.720;6.576;2022-07-10T06:55:12;100644.50;;;23.01;40.51
17615;BME280;8926;49.720;6.576;2022-07-10T06:57:38;100645.13;;;22.57;42.20
17615;BME280;8926;49.720;6.576;2022-07-10T07:00:05;100633.91;;;22.15;42.46
17615;BME280;8926;49.720;6.576;2022-07-10T07:02:30;100649.88;;;21.55;42.94
17615;BME280;8926;49.720;6.576;2022-07-10T07:04:56;100654.03;;;21.18;43.83
17615;BME280;8926;49.720;6.576;2022-07-10T07:07:21;100650.06;;;21.03;44.44
17615;BME280;8926;49.720;6.576;2022-07-10T07:09:46;100656.72;;;20.97;44.36
17615;BME280;8926;49.720;6.576;2022-07-10T07:12:14;100655.88;;;20.96;44.72
17615;BME280;8926;49.720;6.576;2022-07-10T07:14:40;100650.84;;;20.73;44.77
17615;BME280;8926;49.720;6.576;2022-07-10T07:17:05;100668.19;;;20.56;45.06
17615;BME280;8926;49.720;6.576;2022-07-10T07:19:39;100659.66;;;20.52;45.43
17615;BME280;8926;49.720;6.576;2022-07-10T07:22:24;100667.34;;;20.55;44.71
17615;BME280;8926;49.720;6.576;2022-07-10T07:25:10;100665.59;;;20.45;45.65
17615;BME280;8926;49.720;6.576;2022-07-10T07:27:37;100668.63;;;20.40;45.34
17615;BME280;8926;49.720;6.576;2022-07-10T07:30:08;100667.34;;;20.23;45.87
17615;BME280;8926;49.720;6.576;2022-07-10T07:32:35;100661.00;;;20.36;45.46
17615;BME280;8926;49.720;6.576;2022-07-10T07:35:02;100654.44;;;21.13;44.79
17615;BME280;8926;49.720;6.576;2022-07-10T07:40:06;100646.09;;;22.17;43.05
17615;BME280;8926;49.720;6.576;2022-07-10T07:42:32;100649.00;;;22.72;41.81
17615;BME280;8926;49.720;6.576;2022-07-10T07:44:57;100637.59;;;23.09;41.74
17615;BME280;8926;49.720;6.576;2022-07-10T07:47:22;100640.88;;;23.30;40.01
17615;BME280;8926;49.720;6.576;2022-07-10T07:49:48;100638.81;;;23.51;40.02
17615;BME280;8926;49.720;6.576;2022-07-10T07:52:13;100631.22;;;23.84;40.03
17615;BME280;8926;49.720;6.576;2022-07-10T07:54:39;100631.97;;;23.94;38.96
17615;BME280;8926;49.720;6.576;2022-07-10T07:57:05;100634.44;;;24.05;39.32
17615;BME280;8926;49.720;6.576;2022-07-10T07:59:30;100629.63;;;24.09;37.76
17615;BME280;8926;49.720;6.576;2022-07-10T08:01:56;100629.19;;;24.31;38.70
17615;BME280;8926;49.720;6.576;2022-07-10T08:04:21;100631.13;;;24.64;37.44
17615;BME280;8926;49.720;6.576;2022-07-10T08:06:46;100627.06;;;24.34;37.61
17615;BME280;8926;49.720;6.576;2022-07-10T08:09:12;100634.50;;;23.95;38.57
17615;BME280;8926;49.720;6.576;2022-07-10T08:11:37;100625.38;;;24.16;38.27
17615;BME280;8926;49.720;6.576;2022-07-10T08:14:02;100629.88;;;23.70;39.41
17615;BME280;8926;49.720;6.576;2022-07-10T08:16:28;100639.59;;;23.34;40.07
17615;BME280;8926;49.720;6.576;2022-07-10T08:18:54;100630.53;;;23.17;41.12
17615;BME280;8926;49.720;6.576;2022-07-10T08:21:19;100627.84;;;23.27;40.52
17615;BME280;8926;49.720;6.576;2022-07-10T08:23:45;100623.97;;;23.12;39.96
17615;BME280;8926;49.720;6.576;2022-07-10T08:26:10;100620.72;;;23.18;39.73
17615;BME280;8926;49.720;6.576;2022-07-10T08:28:36;100618.56;;;22.94;39.93
17615;BME280;8926;49.720;6.576;2022-07-10T08:31:01;100615.38;;;23.45;40.06
17615;BME280;8926;49.720;6.576;2022-07-10T08:33:27;100619.06;;;23.72;40.12
17615;BME280;8926;49.720;6.576;2022-07-10T08:35:53;100615.50;;;23.98;40.09
17615;BME280;8926;49.720;6.576;2022-07-10T08:38:23;100610.75;;;23.75;40.37
17615;BME280;8926;49.720;6.576;2022-07-10T08:40:49;100614.00;;;23.41;39.49
17615;BME280;8926;49.720;6.576;2022-07-10T08:43:15;100615.22;;;23.19;39.78
17615;BME280;8926;49.720;6.576;2022-07-10T08:45:41;100608.59;;;22.96;40.85
17615;BME280;8926;49.720;6.576;2022-07-10T08:48:07;100609.75;;;22.84;40.53
17615;BME280;8926;49.720;6.576;2022-07-10T08:50:37;100617.31;;;22.69;40.61
17615;BME280;8926;49.720;6.576;2022-07-10T08:53:15;100613.72;;;22.60;40.14
17615;BME280;8926;49.720;6.576;2022-07-10T08:55:42;100608.63;;;22.77;40.10
17615;BME280;8926;49.720;6.576;2022-07-10T08:58:12;100608.06;;;22.73;39.87
17615;BME280;8926;49.720;6.576;2022-07-10T09:00:37;100593.56;;;23.05;39.15
17615;BME280;8926;49.720;6.576;2022-07-10T09:03:03;100592.16;;;23.38;39.15
17615;BME280;8926;49.720;6.576;2022-07-10T09:05:28;100587.34;;;23.68;38.24
17615;BME280;8926;49.720;6.576;2022-07-10T09:07:57;100582.09;;;23.77;37.93
17615;BME280;8926;49.720;6.576;2022-07-10T09:10:26;100590.31;;;23.65;38.58
17615;BME280;8926;49.720;6.576;2022-07-10T09:13:01;100582.31;;;23.38;37.31
17615;BME280;8926;49.720;6.576;2022-07-10T09:15:33;100580.25;;;23.59;38.24
17615;BME280;8926;49.720;6.576;2022-07-10T09:18:05;100584.25;;;24.26;36.98
17615;BME280;8926;49.720;6.576;2022-07-10T09:20:34;100567.28;;;24.87;37.21
17615;BME280;8926;49.720;6.576;2022-07-10T09:23:14;100575.69;;;24.92;36.74
17615;BME280;8926;49.720;6.576;2022-07-10T09:25:40;100573.91;;;25.01;36.17
17615;BME280;8926;49.720;6.576;2022-07-10T09:28:05;100563.97;;;25.27;35.10
17615;BME280;8926;49.720;6.576;2022-07-10T09:30:38;100568.91;;;25.56;35.19
17615;BME280;8926;49.720;6.576;2022-07-10T09:33:26;100571.00;;;25.71;35.37
17615;BME280;8926;49.720;6.576;2022-07-10T09:41:29;100558.16;;;25.32;35.23
17615;BME280;8926;49.720;6.576;2022-07-10T09:46:26;100550.13;;;25.90;34.34
17615;BME280;8926;49.720;6.576;2022-07-10T09:49:21;100552.94;;;26.05;34.62
17615;BME280;8926;49.720;6.576;2022-07-10T09:51:59;100553.59;;;25.66;35.39
17615;BME280;8926;49.720;6.576;2022-07-10T09:54:27;100546.94;;;25.95;34.88
17615;BME280;8926;49.720;6.576;2022-07-10T09:56:54;100546.94;;;26.03;34.40
17615;BME280;8926;49.720;6.576;2022-07-10T09:59:21;100552.59;;;25.76;35.26
17615;BME280;8926;49.720;6.576;2022-07-10T10:01:51;100552.91;;;25.73;34.56
17615;BME280;8926;49.720;6.576;2022-07-10T10:04:21;100556.16;;;26.49;34.63
17615;BME280;8926;49.720;6.576;2022-07-10T10:06:56;100547.84;;;26.99;33.62
17615;BME280;8926;49.720;6.576;2022-07-10T10:09:33;100535.00;;;27.18;32.92
17615;BME280;8926;49.720;6.576;2022-07-10T10:12:04;100547.91;;;26.67;34.03
17615;BME280;8926;49.720;6.576;2022-07-10T10:14:31;100551.75;;;26.56;33.80
17615;BME280;8926;49.720;6.576;2022-07-10T10:16:59;100540.63;;;26.92;34.06
17615;BME280;8926;49.720;6.576;2022-07-10T10:19:25;100534.72;;;27.04;32.74
17615;BME280;8926;49.720;6.576;2022-07-10T10:22:12;100534.25;;;27.01;34.10
17615;BME280;8926;49.720;6.576;2022-07-10T10:24:38;100529.34;;;27.04;32.77
17615;BME280;8926;49.720;6.576;2022-07-10T10:27:05;100531.97;;;26.74;34.33
17615;BME280;8926;49.720;6.576;2022-07-10T10:29:35;100530.97;;;26.75;34.35
17615;BME280;8926;49.720;6.576;2022-07-10T10:32:01;100541.59;;;26.44;34.23
17615;BME280;8926;49.720;6.576;2022-07-10T10:34:47;100548.75;;;26.27;34.88
17615;BME280;8926;49.720;6.576;2022-07-10T10:37:40;100551.28;;;26.04;34.76
17615;BME280;8926;49.720;6.576;2022-07-10T10:40:30;100542.88;;;25.75;35.27
17615;BME280;8926;49.720;6.576;2022-07-10T10:43:15;100544.06;;;25.64;35.71
17615;BME280;8926;49.720;6.576;2022-07-10T10:45:42;100551.50;;;25.52;36.23
17615;BME280;8926;49.720;6.576;2022-07-10T10:48:12;100536.94;;;25.47;36.05
17615;BME280;8926;49.720;6.576;2022-07-10T10:50:45;100536.22;;;26.11;35.82
17615;BME280;8926;49.720;6.576;2022-07-10T10:53:22;100543.56;;;26.25;35.37
17615;BME280;8926;49.720;6.576;2022-07-10T10:58:36;100549.28;;;26.06;35.53
17615;BME280;8926;49.720;6.576;2022-07-10T11:01:06;100545.59;;;26.07;35.65
17615;BME280;8926;49.720;6.576;2022-07-10T11:06:45;100539.56;;;26.13;35.48
17615;BME280;8926;49.720;6.576;2022-07-10T11:09:21;100545.09;;;26.44;35.21
17615;BME280;8926;49.720;6.576;2022-07-10T11:12:09;100536.19;;;26.27;35.39
17615;BME280;8926;49.720;6.576;2022-07-10T11:14:45;100546.09;;;26.11;35.92
17615;BME280;8926;49.720;6.576;2022-07-10T11:17:12;100531.31;;;26.55;35.41
17615;BME280;8926;49.720;6.576;2022-07-10T11:19:38;100541.56;;;26.27;35.54
17615;BME280;8926;49.720;6.576;2022-07-10T11:24:59;100541.06;;;26.08;35.99
17615;BME280;8926;49.720;6.576;2022-07-10T11:27:49;100542.72;;;26.25;35.86
17615;BME280;8926;49.720;6.576;2022-07-10T11:30:17;100545.59;;;26.07;35.85
17615;BME280;8926;49.720;6.576;2022-07-10T11:32:42;100542.22;;;25.73;36.19
17615;BME280;8926;49.720;6.576;2022-07-10T11:35:14;100544.56;;;25.67;36.18
17615;BME280;8926;49.720;6.576;2022-07-10T11:37:52;100554.94;;;25.71;36.45
17615;BME280;8926;49.720;6.576;2022-07-10T11:40:19;100539.22;;;26.00;36.66
17615;BME280;8926;49.720;6.576;2022-07-10T11:42:51;100542.25;;;26.21;35.90
17615;BME280;8926;49.720;6.576;2022-07-10T11:45:30;100544.59;;;26.41;36.02
17615;BME280;8926;49.720;6.576;2022-07-10T11:47:57;100538.19;;;26.58;35.29
17615;BME280;8926;49.720;6.576;2022-07-10T11:50:22;100538.19;;;26.58;35.44
17615;BME280;8926;49.720;6.576;2022-07-10T11:52:48;100541.25;;;26.30;35.78
17615;BME280;8926;49.720;6.576;2022-07-10T11:55:20;100551.28;;;26.04;36.10
17615;BME280;8926;49.720;6.576;2022-07-10T11:57:46;100529.69;;;26.06;35.74
17615;BME280;8926;49.720;6.576;2022-07-10T12:00:25;100520.50;;;26.24;35.94
17615;BME280;8926;49.720;6.576;2022-07-10T12:02:52;100522.84;;;26.35;35.84
17615;BME280;8926;49.720;6.576;2022-07-10T12:07:56;100534.72;;;26.33;35.90
17615;BME280;8926;49.720;6.576;2022-07-10T12:10:25;100539.25;;;26.16;36.33
17615;BME280;8926;49.720;6.576;2022-07-10T12:12:51;100537.06;;;25.87;36.70
17615;BME280;8926;49.720;6.576;2022-07-10T12:15:36;100541.88;;;25.76;36.72
17615;BME280;8926;49.720;6.576;2022-07-10T12:18:06;100536.22;;;25.95;36.51
17615;BME280;8926;49.720;6.576;2022-07-10T12:20:32;100534.88;;;25.91;36.56
17615;BME280;8926;49.720;6.576;2022-07-10T12:22:59;100534.84;;;25.75;36.43
17615;BME280;8926;49.720;6.576;2022-07-10T12:25:25;100533.88;;;25.67;36.87
17615;BME280;8926;49.720;6.576;2022-07-10T12:27:57;100537.66;;;25.57;37.23
17615;BME280;8926;49.720;6.576;2022-07-10T12:30:29;100528.28;;;25.45;36.98
17615;BME280;8926;49.720;6.576;2022-07-10T12:33:12;100525.06;;;25.33;37.28
17615;BME280;8926;49.720;6.576;2022-07-10T12:38:19;100533.78;;;25.51;37.46
17615;BME280;8926;49.720;6.576;2022-07-10T12:40:44;100525.44;;;25.46;37.78
17615;BME280;8926;49.720;6.576;2022-07-10T12:43:10;100527.06;;;25.47;37.61
17615;BME280;8926;49.720;6.576;2022-07-10T12:45:37;100529.38;;;25.26;37.61
17615;BME280;8926;49.720;6.576;2022-07-10T12:48:04;100527.66;;;25.09;38.20
17615;BME280;8926;49.720;6.576;2022-07-10T12:50:33;100530.69;;;25.14;37.95
17615;BME280;8926;49.720;6.576;2022-07-10T12:53:11;100534.69;;;25.10;37.56
17615;BME280;8926;49.720;6.576;2022-07-10T12:55:39;100537.94;;;24.95;38.57
17615;BME280;8926;49.720;6.576;2022-07-10T12:58:09;100528.59;;;24.99;38.05
17615;BME280;8926;49.720;6.576;2022-07-10T13:00:43;100527.97;;;25.06;37.87
17615;BME280;8926;49.720;6.576;2022-07-10T13:03:11;100527.31;;;25.12;37.82
17615;BME280;8926;49.720;6.576;2022-07-10T13:05:38;100529.00;;;25.13;38.07
17615;BME280;8926;49.720;6.576;2022-07-10T13:08:24;100520.50;;;25.25;38.02
17615;BME280;8926;49.720;6.576;2022-07-10T13:10:54;100523.34;;;25.24;38.58
17615;BME280;8926;49.720;6.576;2022-07-10T13:13:20;100528.06;;;25.30;38.16
17615;BME280;8926;49.720;6.576;2022-07-10T13:15:48;100517.69;;;25.35;38.23
17615;BME280;8926;49.720;6.576;2022-07-10T13:18:23;100511.72;;;25.41;37.60
17615;BME280;8926;49.720;6.576;2022-07-10T13:20:49;100516.56;;;25.46;37.93
17615;BME280;8926;49.720;6.576;2022-07-10T13:23:15;100514.34;;;25.33;37.47
17615;BME280;8926;49.720;6.576;2022-07-10T13:25:42;100517.69;;;25.35;38.09
17615;BME280;8926;49.720;6.576;2022-07-10T13:28:09;100520.34;;;25.19;38.41